sensor_id;sensor_type;location;lat;lon;timestamp;pressure;altitude;pressure_sealevel;temperature
73673;BMP280;61972;19.480;-99.240;2023-08-06T00:00:29;77777.88;;;29.73
73673;BMP280;61972;19.480;-99.240;2023-08-06T00:02:55;77764.53;;;29.70
73673;BMP280;61972;19.480;-99.240;2023-08-06T00:05:21;77762.91;;;29.69
73673;BMP280;61972;19.480;-99.240;2023-08-06T00:07:48;77769.69;;;29.68
73673;BMP280;61972;19.480;-99.240;2023-08-06T00:10:15;77768.56;;;29.67
73673;BMP280;61972;19.480;-99.240;2023-08-06T00:12:41;77757.34;;;29.64
73673;BMP280;61972;19.480;-99.240;2023-08-06T00:15:08;77759.97;;;29.64
73673;BMP280;61972;19.480;-99.240;2023-08-06T00:17:35;77765.13;;;29.61
73673;BMP280;61972;19.480;-99.240;2023-08-06T00:20:02;77768.75;;;29.59
73673;BMP280;61972;19.480;-99.240;2023-08-06T00:22:36;77771.78;;;29.57
73673;BMP280;61972;19.480;-99.240;2023-08-06T00:25:03;77791.75;;;29.56
73673;BMP280;61972;19.480;-99.240;2023-08-06T00:27:31;77801.16;;;29.55
73673;BMP280;61972;19.480;-99.240;2023-08-06T00:29:58;77814.75;;;29.53
73673;BMP280;61972;19.480;-99.240;2023-08-06T00:32:24;77824.16;;;29.52
73673;BMP280;61972;19.480;-99.240;2023-08-06T00:34:51;77822.53;;;29.51
73673;BMP280;61972;19.480;-99.240;2023-08-06T00:37:17;77818.78;;;29.50
73673;BMP280;61972;19.480;-99.240;2023-08-06T00:39:44;77824.03;;;29.50
73673;BMP280;61972;19.480;-99.240;2023-08-06T00:42:11;77811.41;;;29.50
73673;BMP280;61972;19.480;-99.240;2023-08-06T00:44:38;77820.41;;;29.51
73673;BMP280;61972;19.480;-99.240;2023-08-06T00:47:05;77821.53;;;29.52
73673;BMP280;61972;19.480;-99.240;2023-08-06T00:49:31;77826.38;;;29.54
73673;BMP280;61972;19.480;-99.240;2023-08-06T00:51:58;77824.88;;;29.55
73673;BMP280;61972;19.480;-99.240;2023-08-06T00:54:25;77832.34;;;29.57
73673;BMP280;61972;19.480;-99.240;2023-08-06T00:56:52;77825.56;;;29.58
73673;BMP280;61972;19.480;-99.240;2023-08-06T00:59:19;77823.59;;;29.62
73673;BMP280;61972;19.480;-99.240;2023-08-06T01:01:45;77831.09;;;29.64
73673;BMP280;61972;19.480;-99.240;2023-08-06T01:04:12;77833.31;;;29.66
73673;BMP280;61972;19.480;-99.240;2023-08-06T01:06:46;77840.25;;;29.67
73673;BMP280;61972;19.480;-99.240;2023-08-06T01:09:31;77836.66;;;29.69
73673;BMP280;61972;19.480;-99.240;2023-08-06T01:17:57;77836.50;;;29.66
73673;BMP280;61972;19.480;-99.240;2023-08-06T01:20:31;77836.34;;;29.64
73673;BMP280;61972;19.480;-99.240;2023-08-06T01:22:57;77847.31;;;29.62
73673;BMP280;61972;19.480;-99.240;2023-08-06T01:25:29;77848.84;;;29.61
73673;BMP280;61972;19.480;-99.240;2023-08-06T01:28:02;77855.50;;;29.57
73673;BMP280;61972;19.480;-99.240;2023-08-06T01:30:32;77863.78;;;29.55
73673;BMP280;61972;19.480;-99.240;2023-08-06T01:33:04;77857.84;;;29.52
73673;BMP280;61972;19.480;-99.240;2023-08-06T01:35:32;77868.22;;;29.49
73673;BMP280;61972;19.480;-99.240;2023-08-06T01:38:02;77882.91;;;29.48
73673;BMP280;61972;19.480;-99.240;2023-08-06T01:40:29;77890.16;;;29.45
73673;BMP280;61972;19.480;-99.240;2023-08-06T01:42:55;77894.72;;;29.42
73673;BMP280;61972;19.480;-99.240;2023-08-06T01:45:21;77908.84;;;29.40
73673;BMP280;61972;19.480;-99.240;2023-08-06T01:47:47;77903.44;;;29.38
73673;BMP280;61972;19.480;-99.240;2023-08-06T01:50:13;77910.63;;;29.35
73673;BMP280;61972;19.480;-99.240;2023-08-06T01:52:39;77909.53;;;29.34
73673;BMP280;61972;19.480;-99.240;2023-08-06T01:55:06;77911.44;;;29.31
73673;BMP280;61972;19.480;-99.240;2023-08-06T01:57:32;77917.13;;;29.29
73673;BMP280;61972;19.480;-99.240;2023-08-06T01:59:58;77923.38;;;29.27
73673;BMP280;61972;19.480;-99.240;2023-08-06T02:02:24;77920.56;;;29.25
73673;BMP280;61972;19.480;-99.240;2023-08-06T02:04:50;77919.47;;;29.24
73673;BMP280;61972;19.480;-99.240;2023-08-06T02:07:16;77921.44;;;29.20
73673;BMP280;61972;19.480;-99.240;2023-08-06T02:09:42;77939.84;;;29.20
73673;BMP280;61972;19.480;-99.240;2023-08-06T02:12:11;77935.66;;;29.21
73673;BMP280;61972;19.480;-99.240;2023-08-06T02:14:37;77936.38;;;29.25
73673;BMP280;61972;19.480;-99.240;2023-08-06T02:17:03;77935.69;;;29.31
73673;BMP280;61972;19.480;-99.240;2023-08-06T02:19:29;77936.13;;;29.39
73673;BMP280;61972;19.480;-99.240;2023-08-06T02:21:56;77947.22;;;29.49
73673;BMP280;61972;19.480;-99.240;2023-08-06T02:24:22;77948.09;;;29.65
73673;BMP280;61972;19.480;-99.240;2023-08-06T02:26:48;77963.91;;;29.84
73673;BMP280;61972;19.480;-99.240;2023-08-06T02:29:18;77962.00;;;30.07
73673;BMP280;61972;19.480;-99.240;2023-08-06T02:31:44;77961.16;;;30.30
73673;BMP280;61972;19.480;-99.240;2023-08-06T02:34:11;77957.22;;;30.56
73673;BMP280;61972;19.480;-99.240;2023-08-06T02:36:37;77966.03;;;30.84
73673;BMP280;61972;19.480;-99.240;2023-08-06T02:39:03;77962.34;;;31.15
73673;BMP280;61972;19.480;-99.240;2023-08-06T02:41:29;77959.06;;;31.43
73673;BMP280;61972;19.480;-99.240;2023-08-06T02:43:55;77967.34;;;31.73
73673;BMP280;61972;19.480;-99.240;2023-08-06T02:46:21;77974.13;;;32.04
73673;BMP280;61972;19.480;-99.240;2023-08-06T02:48:47;77971.72;;;32.31
73673;BMP280;61972;19.480;-99.240;2023-08-06T02:51:13;77966.75;;;32.61
73673;BMP280;61972;19.480;-99.240;2023-08-06T02:53:39;77972.22;;;32.88
73673;BMP280;61972;19.480;-99.240;2023-08-06T02:56:05;77966.50;;;33.15
73673;BMP280;61972;19.480;-99.240;2023-08-06T02:58:31;77970.81;;;33.41
73673;BMP280;61972;19.480;-99.240;2023-08-06T03:01:02;77961.75;;;33.64
73673;BMP280;61972;19.480;-99.240;2023-08-06T03:03:30;77970.13;;;33.87
73673;BMP280;61972;19.480;-99.240;2023-08-06T03:05:56;77964.00;;;34.06
73673;BMP280;61972;19.480;-99.240;2023-08-06T03:08:22;77963.06;;;34.22
73673;BMP280;61972;19.480;-99.240;2023-08-06T03:10:50;77967.47;;;34.39
73673;BMP280;61972;19.480;-99.240;2023-08-06T03:13:18;77966.97;;;34.53
73673;BMP280;61972;19.480;-99.240;2023-08-06T03:15:54;77967.47;;;34.66
73673;BMP280;61972;19.480;-99.240;2023-08-06T03:18:21;77969.06;;;34.80
73673;BMP280;61972;19.480;-99.240;2023-08-06T03:20:47;77963.69;;;34.92
73673;BMP280;61972;19.480;-99.240;2023-08-06T03:23:14;77970.56;;;35.06
73673;BMP280;61972;19.480;-99.240;2023-08-06T03:25:40;77972.06;;;35.17
73673;BMP280;61972;19.480;-99.240;2023-08-06T03:28:06;77971.88;;;35.27
73673;BMP280;61972;19.480;-99.240;2023-08-06T03:30:32;77975.94;;;35.36
73673;BMP280;61972;19.480;-99.240;2023-08-06T03:32:58;77976.13;;;35.41
73673;BMP280;61972;19.480;-99.240;2023-08-06T03:35:24;77982.72;;;35.47
73673;BMP280;61972;19.480;-99.240;2023-08-06T03:37:50;77978.13;;;35.53
73673;BMP280;61972;19.480;-99.240;2023-08-06T03:40:17;77986.88;;;35.58
73673;BMP280;61972;19.480;-99.240;2023-08-06T03:42:43;77984.94;;;35.64
73673;BMP280;61972;19.480;-99.240;2023-08-06T03:45:09;77991.53;;;35.70
73673;BMP280;61972;19.480;-99.240;2023-08-06T03:47:35;77998.13;;;35.76
73673;BMP280;61972;19.480;-99.240;2023-08-06T03:50:02;78002.66;;;35.83
73673;BMP280;61972;19.480;-99.240;2023-08-06T03:52:33;78012.44;;;35.90
73673;BMP280;61972;19.480;-99.240;2023-08-06T03:54:59;78004.63;;;35.95
73673;BMP280;61972;19.480;-99.240;2023-08-06T03:57:25;78007.50;;;36.00
73673;BMP280;61972;19.480;-99.240;2023-08-06T03:59:51;78011.88;;;36.04
73673;BMP280;61972;19.480;-99.240;2023-08-06T04:02:18;78016.28;;;36.08
73673;BMP280;61972;19.480;-99.240;2023-08-06T04:04:44;78024.34;;;36.11
73673;BMP280;61972;19.480;-99.240;2023-08-06T04:07:10;78023.44;;;36.15
73673;BMP280;61972;19.480;-99.240;2023-08-06T04:09:54;78027.09;;;36.13
73673;BMP280;61972;19.480;-99.240;2023-08-06T04:12:21;78028.22;;;35.99
73673;BMP280;61972;19.480;-99.240;2023-08-06T04:14:47;78022.06;;;35.76
73673;BMP280;61972;19.480;-99.240;2023-08-06T04:17:13;78026.94;;;35.49
73673;BMP280;61972;19.480;-99.240;2023-08-06T04:19:39;78028.41;;;35.18
73673;BMP280;61972;19.480;-99.240;2023-08-06T04:22:05;78022.94;;;34.85
73673;BMP280;61972;19.480;-99.240;2023-08-06T04:24:32;78034.34;;;34.52
73673;BMP280;61972;19.480;-99.240;2023-08-06T04:26:58;78037.84;;;34.20
73673;BMP280;61972;19.480;-99.240;2023-08-06T04:29:24;78040.72;;;33.89
73673;BMP280;61972;19.480;-99.240;2023-08-06T04:31:50;78044.69;;;33.58
73673;BMP280;61972;19.480;-99.240;2023-08-06T04:34:16;78047.09;;;33.28
73673;BMP280;61972;19.480;-99.240;2023-08-06T04:36:42;78044.72;;;32.99
73673;BMP280;61972;19.480;-99.240;2023-08-06T04:39:08;78050.94;;;32.73
73673;BMP280;61972;19.480;-99.240;2023-08-06T04:41:34;78049.72;;;32.47
73673;BMP280;61972;19.480;-99.240;2023-08-06T04:44:00;78046.38;;;32.22
73673;BMP280;61972;19.480;-99.240;2023-08-06T04:46:26;78049.44;;;31.98
73673;BMP280;61972;19.480;-99.240;2023-08-06T04:48:53;78054.13;;;31.75
73673;BMP280;61972;19.480;-99.240;2023-08-06T04:51:19;78051.00;;;31.55
73673;BMP280;61972;19.480;-99.240;2023-08-06T04:53:45;78049.00;;;31.36
73673;BMP280;61972;19.480;-99.240;2023-08-06T04:56:11;78050.19;;;31.18
73673;BMP280;61972;19.480;-99.240;2023-08-06T04:58:37;78051.31;;;30.99
73673;BMP280;61972;19.480;-99.240;2023-08-06T05:01:03;78051.63;;;30.85
73673;BMP280;61972;19.480;-99.240;2023-08-06T05:03:29;78052.88;;;30.69
73673;BMP280;61972;19.480;-99.240;2023-08-06T05:05:55;78057.47;;;30.56
73673;BMP280;61972;19.480;-99.240;2023-08-06T05:08:21;78068.84;;;30.42
73673;BMP280;61972;19.480;-99.240;2023-08-06T05:10:47;78071.34;;;30.30
73673;BMP280;61972;19.480;-99.240;2023-08-06T05:13:13;78070.22;;;30.19
73673;BMP280;61972;19.480;-99.240;2023-08-06T05:15:40;78072.69;;;30.07
73673;BMP280;61972;19.480;-99.240;2023-08-06T05:18:08;78071.53;;;29.96
73673;BMP280;61972;19.480;-99.240;2023-08-06T05:20:39;78071.53;;;29.86
73673;BMP280;61972;19.480;-99.240;2023-08-06T05:23:05;78059.47;;;29.77
73673;BMP280;61972;19.480;-99.240;2023-08-06T05:25:31;78059.00;;;29.70
73673;BMP280;61972;19.480;-99.240;2023-08-06T05:27:57;78060.94;;;29.67
73673;BMP280;61972;19.480;-99.240;2023-08-06T05:30:23;78056.50;;;29.63
73673;BMP280;61972;19.480;-99.240;2023-08-06T05:32:49;78049.00;;;29.61
73673;BMP280;61972;19.480;-99.240;2023-08-06T05:35:15;78056.19;;;29.57
73673;BMP280;61972;19.480;-99.240;2023-08-06T05:37:42;78046.06;;;29.55
73673;BMP280;61972;19.480;-99.240;2023-08-06T05:40:08;78051.75;;;29.53
73673;BMP280;61972;19.480;-99.240;2023-08-06T05:42:34;78058.53;;;29.52
73673;BMP280;61972;19.480;-99.240;2023-08-06T05:45:00;78057.97;;;29.52
73673;BMP280;61972;19.480;-99.240;2023-08-06T05:47:26;78061.03;;;29.50
73673;BMP280;61972;19.480;-99.240;2023-08-06T05:49:53;78051.44;;;29.48
73673;BMP280;61972;19.480;-99.240;2023-08-06T05:52:19;78053.00;;;29.47
73673;BMP280;61972;19.480;-99.240;2023-08-06T05:54:45;78043.97;;;29.46
73673;BMP280;61972;19.480;-99.240;2023-08-06T05:57:11;78045.50;;;29.45
73673;BMP280;61972;19.480;-99.240;2023-08-06T05:59:37;78039.13;;;29.44
73673;BMP280;61972;19.480;-99.240;2023-08-06T06:02:03;78040.63;;;29.43
73673;BMP280;61972;19.480;-99.240;2023-08-06T06:04:29;78044.22;;;29.42
73673;BMP280;61972;19.480;-99.240;2023-08-06T06:06:56;78041.03;;;29.41
73673;BMP280;61972;19.480;-99.240;2023-08-06T06:09:22;78042.56;;;29.40
73673;BMP280;61972;19.480;-99.240;2023-08-06T06:11:48;78040.34;;;29.38
73673;BMP280;61972;19.480;-99.240;2023-08-06T06:14:17;78039.22;;;29.37
73673;BMP280;61972;19.480;-99.240;2023-08-06T06:16:43;78039.63;;;29.35
73673;BMP280;61972;19.480;-99.240;2023-08-06T06:19:10;78046.97;;;29.34
73673;BMP280;61972;19.480;-99.240;2023-08-06T06:21:36;78041.56;;;29.32
73673;BMP280;61972;19.480;-99.240;2023-08-06T06:24:03;78038.94;;;29.32
73673;BMP280;61972;19.480;-99.240;2023-08-06T06:26:30;78031.97;;;29.30
73673;BMP280;61972;19.480;-99.240;2023-08-06T06:28:56;78036.13;;;29.29
73673;BMP280;61972;19.480;-99.240;2023-08-06T06:31:23;78023.38;;;29.27
73673;BMP280;61972;19.480;-99.240;2023-08-06T06:33:49;78028.09;;;29.27
73673;BMP280;61972;19.480;-99.240;2023-08-06T06:36:15;78025.88;;;29.25
73673;BMP280;61972;19.480;-99.240;2023-08-06T06:38:41;78023.63;;;29.23
73673;BMP280;61972;19.480;-99.240;2023-08-06T06:41:07;78023.63;;;29.23
73673;BMP280;61972;19.480;-99.240;2023-08-06T06:43:33;78018.81;;;29.20
73673;BMP280;61972;19.480;-99.240;2023-08-06T06:46:00;78015.06;;;29.19
73673;BMP280;61972;19.480;-99.240;2023-08-06T06:48:27;78018.09;;;29.17
73673;BMP280;61972;19.480;-99.240;2023-08-06T06:50:54;78007.00;;;29.17
73673;BMP280;61972;19.480;-99.240;2023-08-06T06:53:20;78005.88;;;29.16
73673;BMP280;61972;19.480;-99.240;2023-08-06T06:55:49;78004.78;;;29.15
73673;BMP280;61972;19.480;-99.240;2023-08-06T06:58:18;77997.28;;;29.13
73673;BMP280;61972;19.480;-99.240;2023-08-06T07:00:44;78000.88;;;29.11
73673;BMP280;61972;19.480;-99.240;2023-08-06T07:03:11;78005.03;;;29.10
73673;BMP280;61972;19.480;-99.240;2023-08-06T07:05:37;78006.53;;;29.09
73673;BMP280;61972;19.480;-99.240;2023-08-06T07:08:03;78005.44;;;29.08
73673;BMP280;61972;19.480;-99.240;2023-08-06T07:10:29;78005.31;;;29.06
73673;BMP280;61972;19.480;-99.240;2023-08-06T07:12:55;78004.75;;;29.05
73673;BMP280;61972;19.480;-99.240;2023-08-06T07:15:21;78007.78;;;29.03
73673;BMP280;61972;19.480;-99.240;2023-08-06T07:17:47;78001.97;;;29.02
73673;BMP280;61972;19.480;-99.240;2023-08-06T07:20:13;77996.16;;;29.02
73673;BMP280;61972;19.480;-99.240;2023-08-06T07:22:40;77995.03;;;29.01
73673;BMP280;61972;19.480;-99.240;2023-08-06T07:25:06;77998.06;;;28.99
73673;BMP280;61972;19.480;-99.240;2023-08-06T07:27:32;77991.69;;;28.98
73673;BMP280;61972;19.480;-99.240;2023-08-06T07:29:59;77998.44;;;28.97
73673;BMP280;61972;19.480;-99.240;2023-08-06T07:32:25;78000.00;;;28.96
73673;BMP280;61972;19.480;-99.240;2023-08-06T07:34:51;77994.19;;;28.95
73673;BMP280;61972;19.480;-99.240;2023-08-06T07:37:23;78005.09;;;28.93
73673;BMP280;61972;19.480;-99.240;2023-08-06T07:39:50;77995.53;;;28.92
73673;BMP280;61972;19.480;-99.240;2023-08-06T07:42:16;77999.69;;;28.91
73673;BMP280;61972;19.480;-99.240;2023-08-06T07:44:51;78000.09;;;28.89
73673;BMP280;61972;19.480;-99.240;2023-08-06T07:47:18;77989.03;;;28.88
73673;BMP280;61972;19.480;-99.240;2023-08-06T07:49:44;77994.13;;;28.86
73673;BMP280;61972;19.480;-99.240;2023-08-06T07:52:10;77992.47;;;28.84
73673;BMP280;61972;19.480;-99.240;2023-08-06T07:54:36;77996.03;;;28.82
73673;BMP280;61972;19.480;-99.240;2023-08-06T07:57:03;77996.03;;;28.82
73673;BMP280;61972;19.480;-99.240;2023-08-06T07:59:29;77990.09;;;28.79
73673;BMP280;61972;19.480;-99.240;2023-08-06T08:01:55;77991.59;;;28.78
73673;BMP280;61972;19.480;-99.240;2023-08-06T08:04:21;77985.25;;;28.77
73673;BMP280;61972;19.480;-99.240;2023-08-06T08:06:47;77990.88;;;28.75
73673;BMP280;61972;19.480;-99.240;2023-08-06T08:09:14;77992.41;;;28.74
73673;BMP280;61972;19.480;-99.240;2023-08-06T08:11:41;77995.44;;;28.72
73673;BMP280;61972;19.480;-99.240;2023-08-06T08:14:07;77998.47;;;28.70
73673;BMP280;61972;19.480;-99.240;2023-08-06T08:16:34;77998.47;;;28.70
73673;BMP280;61972;19.480;-99.240;2023-08-06T08:19:00;77998.91;;;28.68
73673;BMP280;61972;19.480;-99.240;2023-08-06T08:21:26;78001.91;;;28.66
73673;BMP280;61972;19.480;-99.240;2023-08-06T08:23:52;77991.25;;;28.63
73673;BMP280;61972;19.480;-99.240;2023-08-06T08:26:18;77993.16;;;28.60
73673;BMP280;61972;19.480;-99.240;2023-08-06T08:28:44;77987.19;;;28.57
73673;BMP280;61972;19.480;-99.240;2023-08-06T08:31:11;77996.44;;;28.54
73673;BMP280;61972;19.480;-99.240;2023-08-06T08:33:38;77992.56;;;28.50
73673;BMP280;61972;19.480;-99.240;2023-08-06T08:36:05;77983.41;;;28.47
73673;BMP280;61972;19.480;-99.240;2023-08-06T08:38:31;77988.34;;;28.41
73673;BMP280;61972;19.480;-99.240;2023-08-06T08:40:57;77990.28;;;28.38
73673;BMP280;61972;19.480;-99.240;2023-08-06T08:43:24;77985.81;;;28.34
73673;BMP280;61972;19.480;-99.240;2023-08-06T08:45:51;77986.63;;;28.30
73673;BMP280;61972;19.480;-99.240;2023-08-06T08:48:18;77988.53;;;28.27
73673;BMP280;61972;19.480;-99.240;2023-08-06T08:50:46;77995.72;;;28.24
73673;BMP280;61972;19.480;-99.240;2023-08-06T08:53:14;77998.19;;;28.21
73673;BMP280;61972;19.480;-99.240;2023-08-06T08:55:43;77989.59;;;28.18
73673;BMP280;61972;19.480;-99.240;2023-08-06T09:00:42;77993.59;;;28.15
73673;BMP280;61972;19.480;-99.240;2023-08-06T09:03:08;78003.94;;;28.12
73673;BMP280;61972;19.480;-99.240;2023-08-06T09:05:35;78000.75;;;28.12
73673;BMP280;61972;19.480;-99.240;2023-08-06T09:08:04;77995.88;;;28.10
73673;BMP280;61972;19.480;-99.240;2023-08-06T09:10:31;78004.16;;;28.07
73673;BMP280;61972;19.480;-99.240;2023-08-06T09:12:58;77996.69;;;28.05
73673;BMP280;61972;19.480;-99.240;2023-08-06T09:15:27;77995.56;;;28.04
73673;BMP280;61972;19.480;-99.240;2023-08-06T09:17:54;78003.28;;;28.02
73673;BMP280;61972;19.480;-99.240;2023-08-06T09:20:20;78003.69;;;28.00
73673;BMP280;61972;19.480;-99.240;2023-08-06T09:22:47;77998.81;;;27.98
73673;BMP280;61972;19.480;-99.240;2023-08-06T09:25:23;78002.81;;;27.94
73673;BMP280;61972;19.480;-99.240;2023-08-06T09:27:53;77997.97;;;27.92
73673;BMP280;61972;19.480;-99.240;2023-08-06T09:30:30;78001.00;;;27.90
73673;BMP280;61972;19.480;-99.240;2023-08-06T09:32:57;78000.28;;;27.87
73673;BMP280;61972;19.480;-99.240;2023-08-06T09:35:23;78007.03;;;27.86
73673;BMP280;61972;19.480;-99.240;2023-08-06T09:37:49;78006.31;;;27.83
73673;BMP280;61972;19.480;-99.240;2023-08-06T09:40:25;78007.81;;;27.82
73673;BMP280;61972;19.480;-99.240;2023-08-06T09:42:55;78004.47;;;27.79
73673;BMP280;61972;19.480;-99.240;2023-08-06T09:45:22;78002.25;;;27.77
73673;BMP280;61972;19.480;-99.240;2023-08-06T09:47:50;78002.66;;;27.75
73673;BMP280;61972;19.480;-99.240;2023-08-06T09:50:19;78004.19;;;27.74
73673;BMP280;61972;19.480;-99.240;2023-08-06T09:52:50;78001.38;;;27.71
73673;BMP280;61972;19.480;-99.240;2023-08-06T09:55:18;77994.47;;;27.69
73673;BMP280;61972;19.480;-99.240;2023-08-06T09:57:45;78003.84;;;27.68
73673;BMP280;61972;19.480;-99.240;2023-08-06T10:00:12;78005.75;;;27.65
73673;BMP280;61972;19.480;-99.240;2023-08-06T10:02:39;78006.72;;;27.64
73673;BMP280;61972;19.480;-99.240;2023-08-06T10:05:09;78007.66;;;27.62
73673;BMP280;61972;19.480;-99.240;2023-08-06T10:07:35;78007.09;;;27.62
73673;BMP280;61972;19.480;-99.240;2023-08-06T10:10:02;78010.69;;;27.60
73673;BMP280;61972;19.480;-99.240;2023-08-06T10:12:31;78008.47;;;27.58
73673;BMP280;61972;19.480;-99.240;2023-08-06T10:15:03;78008.84;;;27.56
73673;BMP280;61972;19.480;-99.240;2023-08-06T10:17:31;78005.09;;;27.55
73673;BMP280;61972;19.480;-99.240;2023-08-06T10:19:59;78006.63;;;27.54
73673;BMP280;61972;19.480;-99.240;2023-08-06T10:22:27;78008.13;;;27.53
73673;BMP280;61972;19.480;-99.240;2023-08-06T10:24:55;78011.13;;;27.51
73673;BMP280;61972;19.480;-99.240;2023-08-06T10:27:33;78008.38;;;27.48
73673;BMP280;61972;19.480;-99.240;2023-08-06T10:30:22;78020.38;;;27.47
73673;BMP280;61972;19.480;-99.240;2023-08-06T10:32:56;78018.69;;;27.46
73673;BMP280;61972;19.480;-99.240;2023-08-06T10:35:41;78019.63;;;27.44
73673;BMP280;61972;19.480;-99.240;2023-08-06T10:38:20;78030.72;;;27.45
73673;BMP280;61972;19.480;-99.240;2023-08-06T10:43:27;78030.72;;;27.45
73673;BMP280;61972;19.480;-99.240;2023-08-06T10:45:54;78033.34;;;27.45
73673;BMP280;61972;19.480;-99.240;2023-08-06T10:48:36;78031.25;;;27.45
73673;BMP280;61972;19.480;-99.240;2023-08-06T10:51:04;78038.59;;;27.45
73673;BMP280;61972;19.480;-99.240;2023-08-06T10:53:30;78041.22;;;27.45
73673;BMP280;61972;19.480;-99.240;2023-08-06T10:55:57;78042.72;;;27.44
73673;BMP280;61972;19.480;-99.240;2023-08-06T10:58:23;78040.09;;;27.44
73673;BMP280;61972;19.480;-99.240;2023-08-06T11:00:49;78040.09;;;27.44
73673;BMP280;61972;19.480;-99.240;2023-08-06T11:03:15;78049.47;;;27.43
73673;BMP280;61972;19.480;-99.240;2023-08-06T11:05:48;78040.47;;;27.42
73673;BMP280;61972;19.480;-99.240;2023-08-06T11:08:28;78037.84;;;27.42
73673;BMP280;61972;19.480;-99.240;2023-08-06T11:10:54;78042.56;;;27.41
73673;BMP280;61972;19.480;-99.240;2023-08-06T11:13:21;78037.84;;;27.42
73673;BMP280;61972;19.480;-99.240;2023-08-06T11:15:52;78043.47;;;27.40
73673;BMP280;61972;19.480;-99.240;2023-08-06T11:18:19;78038.22;;;27.40
73673;BMP280;61972;19.480;-99.240;2023-08-06T11:20:45;78035.59;;;27.40
73673;BMP280;61972;19.480;-99.240;2023-08-06T11:23:11;78037.13;;;27.39
73673;BMP280;61972;19.480;-99.240;2023-08-06T11:25:44;78049.69;;;27.38
73673;BMP280;61972;19.480;-99.240;2023-08-06T11:28:11;78043.88;;;27.38
73673;BMP280;61972;19.480;-99.240;2023-08-06T11:30:38;78048.03;;;27.37
73673;BMP280;61972;19.480;-99.240;2023-08-06T11:33:07;78048.56;;;27.37
73673;BMP280;61972;19.480;-99.240;2023-08-06T11:35:36;78044.28;;;27.36
73673;BMP280;61972;19.480;-99.240;2023-08-06T11:38:03;78045.78;;;27.35
73673;BMP280;61972;19.480;-99.240;2023-08-06T11:40:29;78049.53;;;27.36
73673;BMP280;61972;19.480;-99.240;2023-08-06T11:42:55;78051.03;;;27.35
73673;BMP280;61972;19.480;-99.240;2023-08-06T11:45:24;78049.91;;;27.33
73673;BMP280;61972;19.480;-99.240;2023-08-06T11:47:51;78057.22;;;27.33
73673;BMP280;61972;19.480;-99.240;2023-08-06T11:50:25;78056.13;;;27.32
73673;BMP280;61972;19.480;-99.240;2023-08-06T11:52:59;78057.06;;;27.30
73673;BMP280;61972;19.480;-99.240;2023-08-06T11:55:27;78061.19;;;27.29
73673;BMP280;61972;19.480;-99.240;2023-08-06T11:57:54;78061.75;;;27.30
73673;BMP280;61972;19.480;-99.240;2023-08-06T12:00:24;78063.28;;;27.29
73673;BMP280;61972;19.480;-99.240;2023-08-06T12:02:50;78071.69;;;27.29
73673;BMP280;61972;19.480;-99.240;2023-08-06T12:05:29;78061.59;;;27.27
73673;BMP280;61972;19.480;-99.240;2023-08-06T12:07:58;78066.84;;;27.27
73673;BMP280;61972;19.480;-99.240;2023-08-06T12:10:26;78071.53;;;27.27
73673;BMP280;61972;19.480;-99.240;2023-08-06T12:12:53;78068.34;;;27.26
73673;BMP280;61972;19.480;-99.240;2023-08-06T12:15:20;78073.97;;;27.24
73673;BMP280;61972;19.480;-99.240;2023-08-06T12:17:49;78070.25;;;27.23
73673;BMP280;61972;19.480;-99.240;2023-08-06T12:20:15;78075.88;;;27.21
73673;BMP280;61972;19.480;-99.240;2023-08-06T12:22:41;78072.13;;;27.20
73673;BMP280;61972;19.480;-99.240;2023-08-06T12:25:09;78076.66;;;27.17
73673;BMP280;61972;19.480;-99.240;2023-08-06T12:27:41;78075.00;;;27.16
73673;BMP280;61972;19.480;-99.240;2023-08-06T12:30:09;78078.56;;;27.14
73673;BMP280;61972;19.480;-99.240;2023-08-06T12:32:36;78079.88;;;27.10
73673;BMP280;61972;19.480;-99.240;2023-08-06T12:35:03;78076.72;;;27.10
73673;BMP280;61972;19.480;-99.240;2023-08-06T12:37:30;78073.38;;;27.07
73673;BMP280;61972;19.480;-99.240;2023-08-06T12:39:56;78082.19;;;27.05
73673;BMP280;61972;19.480;-99.240;2023-08-06T12:42:22;78080.50;;;27.04
73673;BMP280;61972;19.480;-99.240;2023-08-06T12:44:49;78082.97;;;27.01
73673;BMP280;61972;19.480;-99.240;2023-08-06T12:47:16;78085.41;;;26.99
73673;BMP280;61972;19.480;-99.240;2023-08-06T12:49:42;78079.06;;;26.98
73673;BMP280;61972;19.480;-99.240;2023-08-06T12:52:09;78077.94;;;26.97
73673;BMP280;61972;19.480;-99.240;2023-08-06T12:54:40;78081.88;;;26.93
73673;BMP280;61972;19.480;-99.240;2023-08-06T12:57:06;78080.75;;;26.92
73673;BMP280;61972;19.480;-99.240;2023-08-06T12:59:33;78079.09;;;26.90
73673;BMP280;61972;19.480;-99.240;2023-08-06T13:02:00;78078.94;;;26.88
73673;BMP280;61972;19.480;-99.240;2023-08-06T13:04:26;78082.50;;;26.86
73673;BMP280;61972;19.480;-99.240;2023-08-06T13:06:53;78075.56;;;26.85
73673;BMP280;61972;19.480;-99.240;2023-08-06T13:09:19;78073.91;;;26.83
73673;BMP280;61972;19.480;-99.240;2023-08-06T13:11:46;78082.72;;;26.82
73673;BMP280;61972;19.480;-99.240;2023-08-06T13:14:13;78078.41;;;26.80
73673;BMP280;61972;19.480;-99.240;2023-08-06T13:16:41;78084.59;;;26.79
73673;BMP280;61972;19.480;-99.240;2023-08-06T13:19:08;78081.81;;;26.76
73673;BMP280;61972;19.480;-99.240;2023-08-06T13:24:07;78087.44;;;26.74
73673;BMP280;61972;19.480;-99.240;2023-08-06T13:26:33;78088.38;;;26.72
73673;BMP280;61972;19.480;-99.240;2023-08-06T13:29:00;78089.34;;;26.71
73673;BMP280;61972;19.480;-99.240;2023-08-06T13:31:28;78084.47;;;26.69
73673;BMP280;61972;19.480;-99.240;2023-08-06T13:33:55;78083.91;;;26.68
73673;BMP280;61972;19.480;-99.240;2023-08-06T13:36:23;78082.22;;;26.67
73673;BMP280;61972;19.480;-99.240;2023-08-06T13:38:50;78084.31;;;26.66
73673;BMP280;61972;19.480;-99.240;2023-08-06T13:41:16;78091.59;;;26.66
73673;BMP280;61972;19.480;-99.240;2023-08-06T13:43:42;78093.09;;;26.65
73673;BMP280;61972;19.480;-99.240;2023-08-06T13:46:10;78093.50;;;26.63
73673;BMP280;61972;19.480;-99.240;2023-08-06T13:48:40;78099.09;;;26.61
73673;BMP280;61972;19.480;-99.240;2023-08-06T13:51:06;78091.25;;;26.61
73673;BMP280;61972;19.480;-99.240;2023-08-06T13:53:32;78095.38;;;26.60
73673;BMP280;61972;19.480;-99.240;2023-08-06T13:55:58;78094.81;;;26.59
73673;BMP280;61972;19.480;-99.240;2023-08-06T13:58:24;78089.00;;;26.58